Time;durP1;ratioP1;P1;durP2;ratioP2;P2;SDS_P1;SDS_P2;PMS_P1;PMS_P2;Temp;Humidity;BMP_temperature;BMP_pressure;BME280_temperature;BME280_humidity;BME280_pressure;Samples;Min_cycle;Max_cycle;Signal;HPM_P1;HPM_P2
2022/11/16 00:19:27;;;;;;;1.73;1.63;;;;;;;-0.02;100.00;101843.72;4805348;29;20311;-79
2022/11/16 00:21:53;;;;;;;2.00;1.80;;;;;;;-0.02;100.00;101844.56;4789535;30;20828;-79
2022/11/16 00:24:21;;;;;;;2.00;1.80;;;;;;;-0.10;100.00;101832.75;4789863;30;20363;-79
2022/11/16 00:26:51;;;;;;;2.03;1.73;;;;;;;-0.39;100.00;101790.38;4789242;29;20750;-79
2022/11/16 00:29:19;;;;;;;2.57;2.37;;;;;;;-0.19;100.00;101827.91;4788573;30;20793;-80
2022/11/16 00:31:46;;;;;;;1.80;1.70;;;;;;;-0.20;100.00;101829.69;4789244;30;20288;-79
2022/11/16 00:34:12;;;;;;;1.77;1.53;;;;;;;-0.19;100.00;101838.41;4789195;30;20046;-77
2022/11/16 00:36:37;;;;;;;1.47;1.37;;;;;;;-0.24;100.00;101833.38;4788929;30;20269;-79
2022/11/16 00:39:03;;;;;;;2.00;1.63;;;;;;;-0.27;100.00;101841.34;4789129;30;20300;-78
2022/11/16 00:41:29;;;;;;;1.83;1.60;;;;;;;-0.28;100.00;101838.81;4788902;30;20130;-79
2022/11/16 00:43:54;;;;;;;1.80;1.70;;;;;;;-0.30;100.00;101849.31;4790834;30;20042;-79
2022/11/16 00:46:20;;;;;;;1.97;1.80;;;;;;;-0.30;100.00;101851.94;4791921;30;20035;-79
2022/11/16 00:48:45;;;;;;;1.50;1.27;;;;;;;-0.32;100.00;101848.53;4790367;30;20039;-78
2022/11/16 00:51:11;;;;;;;1.97;1.77;;;;;;;-0.42;100.00;101837.63;4803715;29;20042;-79
2022/11/16 00:53:37;;;;;;;1.70;1.60;;;;;;;-0.38;100.00;101849.66;4790389;30;20080;-77
2022/11/16 00:56:02;;;;;;;1.80;1.70;;;;;;;-0.43;100.00;101841.16;4791302;30;20379;-80
2022/11/16 00:58:28;;;;;;;2.13;1.80;;;;;;;-0.43;100.00;101846.38;4791517;30;20031;-79
2022/11/16 01:00:54;;;;;;;1.67;1.53;;;;;;;-0.42;100.00;101863.78;4789556;30;20039;-79
2022/11/16 01:03:19;;;;;;;1.90;1.70;;;;;;;-0.44;100.00;101856.91;4789738;30;20031;-79
2022/11/16 01:05:45;;;;;;;1.77;1.60;;;;;;;-0.48;100.00;101856.22;4789403;30;20058;-80
2022/11/16 01:08:10;;;;;;;2.17;1.97;;;;;;;-0.49;100.00;101851.88;4792825;30;20043;-78
2022/11/16 01:10:39;;;;;;;2.17;1.87;;;;;;;-0.55;100.00;101846.94;4791777;30;20035;-79
2022/11/16 01:13:05;;;;;;;1.65;1.50;;;;;;;-0.52;100.00;101848.56;4789706;30;20042;-78
2022/11/16 01:15:31;;;;;;;1.70;1.50;;;;;;;-0.49;100.00;101849.28;4791054;30;20039;-80
2022/11/16 01:17:57;;;;;;;5.27;1.87;;;;;;;-0.48;100.00;101853.59;4789104;30;20511;-79
2022/11/16 01:20:25;;;;;;;3.43;1.80;;;;;;;-0.53;100.00;101845.09;4789468;30;20038;-78
2022/11/16 01:22:51;;;;;;;2.60;2.00;;;;;;;-0.53;100.00;101839.84;4788426;30;20281;-79
2022/11/16 01:25:17;;;;;;;2.27;2.00;;;;;;;-0.57;100.00;101842.69;4787483;30;20125;-78
2022/11/16 01:27:43;;;;;;;2.00;1.80;;;;;;;-0.55;100.00;101839.06;4787931;30;20094;-78
2022/11/16 01:30:12;;;;;;;3.67;1.87;;;;;;;-0.54;100.00;101848.63;4788739;30;20035;-79
2022/11/16 01:32:37;;;;;;;1.98;1.80;;;;;;;-0.56;100.00;101842.59;4772499;30;20287;-80
2022/11/16 01:35:04;;;;;;;1.57;1.40;;;;;;;-0.57;100.00;101845.28;4788755;30;20035;-79
2022/11/16 01:37:30;;;;;;;2.23;2.03;;;;;;;-0.58;100.00;101839.19;4788374;29;20075;-79
2022/11/16 01:39:56;;;;;;;3.90;1.90;;;;;;;-0.63;100.00;101843.75;4788224;30;20716;-77
2022/11/16 01:42:28;;;;;;;3.03;2.70;;;;;;;-0.60;100.00;101843.63;4788299;30;20365;-78
2022/11/16 01:44:58;;;;;;;2.10;1.90;;;;;;;-0.81;100.00;101818.38;4786697;30;20055;-78
2022/11/16 01:47:24;;;;;;;2.30;2.10;;;;;;;-0.69;100.00;101838.78;4788503;30;20279;-80
2022/11/16 01:49:58;;;;;;;1.60;1.50;;;;;;;-0.74;100.00;101843.38;4771891;30;20261;-80
2022/11/16 01:52:28;;;;;;;1.93;1.73;;;;;;;-0.68;100.00;101845.72;4787846;30;20066;-79
2022/11/16 01:54:54;;;;;;;3.13;2.03;;;;;;;-0.69;100.00;101841.41;4788311;30;20324;-78
2022/11/16 01:57:24;;;;;;;2.10;2.00;;;;;;;-0.71;100.00;101851.09;4786489;30;20268;-79
2022/11/16 01:59:54;;;;;;;1.73;1.60;;;;;;;-0.63;100.00;101859.44;4771537;30;20084;-79
2022/11/16 02:02:19;;;;;;;1.47;1.37;;;;;;;-0.69;100.00;101851.88;4786799;30;20318;-80
2022/11/16 02:04:47;;;;;;;4.77;2.10;;;;;;;-0.70;100.00;101860.63;4788214;30;20265;-79
2022/11/16 02:09:52;;;;;;;2.20;1.70;;;;;;;-0.71;100.00;101862.41;4802666;29;20038;-79
2022/11/16 02:10:41;;;;;;;2.20;1.90;;;;;;;-0.72;100.00;101854.63;4788282;30;20342;-78
2022/11/16 02:13:31;;;;;;;1.92;1.50;;;;;;;-0.67;100.00;101857.88;4788075;30;20265;-79
2022/11/16 02:16:26;;;;;;;1.60;1.50;;;;;;;-0.62;100.00;101856.78;4788355;30;20042;-78
2022/11/16 02:19:26;;;;;;;1.60;1.50;;;;;;;-0.53;100.00;101868.66;4761149;30;20376;-78
2022/11/16 02:22:05;;;;;;;1.93;1.73;;;;;;;-0.50;100.00;101865.91;4771183;30;20632;-79
2022/11/16 02:24:48;;;;;;;3.50;1.80;;;;;;;-0.46;100.00;101871.84;4770645;30;20273;-80
2022/11/16 02:27:23;;;;;;;2.33;1.60;;;;;;;-0.41;100.00;101870.72;4770573;30;20036;-81
2022/11/16 02:29:53;;;;;;;3.13;1.70;;;;;;;-0.33;100.00;101871.25;4770429;30;20273;-79
2022/11/16 02:32:33;;;;;;;1.87;1.60;;;;;;;-0.29;100.00;101868.50;4770190;30;20270;-77
2022/11/16 02:35:08;;;;;;;3.83;3.10;;;;;;;-0.22;100.00;101873.41;4770558;30;20326;-79
2022/11/16 02:37:39;;;;;;;1.63;1.53;;;;;;;-0.21;100.00;101875.13;4799378;29;20266;-77
2022/11/16 02:40:09;;;;;;;1.80;1.70;;;;;;;-0.18;100.00;101872.38;4771485;30;20802;-78
2022/11/16 02:42:42;;;;;;;3.30;2.10;;;;;;;-0.16;100.00;101869.69;4771933;30;20288;-78
2022/11/16 02:45:11;;;;;;;3.47;3.17;;;;;;;-0.13;100.00;101865.16;4773285;30;20607;-79
2022/11/16 02:47:39;;;;;;;4.33;1.97;;;;;;;-0.06;100.00;101871.81;4780179;30;20269;-80
2022/11/16 02:50:10;;;;;;;2.05;1.70;;;;;;;-0.03;100.00;101876.06;4787307;30;20297;-77
2022/11/16 02:52:36;;;;;;;2.53;2.33;;;;;;;0.01;100.00;101877.66;4791499;29;20035;-78
2022/11/16 02:55:02;;;;;;;1.90;1.50;;;;;;;-0.01;100.00;101863.75;4795178;30;20285;-79
2022/11/16 02:57:44;;;;;;;2.07;1.70;;;;;;;-0.06;100.00;101850.00;4781417;30;20300;-77
2022/11/16 03:23:12;;;;;;;2.27;2.00;;;;;;;-0.29;100.00;101853.63;4789695;30;20293;-80
2022/11/16 03:25:48;;;;;;;2.40;2.20;;;;;;;-0.47;100.00;101843.97;4788762;30;20281;-79
2022/11/16 03:28:51;;;;;;;2.57;1.80;;;;;;;-0.41;100.00;101864.66;4789781;30;20278;-77
2022/11/16 03:31:25;;;;;;;2.10;1.90;;;;;;;-0.52;100.00;101865.09;4783319;30;20346;-78
2022/11/16 03:33:58;;;;;;;2.20;2.00;;;;;;;-0.67;100.00;101860.50;4781335;30;20318;-79
2022/11/16 03:36:34;;;;;;;2.70;2.07;;;;;;;-0.68;100.00;101866.66;4778317;30;20280;-78
2022/11/16 03:39:09;;;;;;;2.20;1.90;;;;;;;-0.73;100.00;101866.00;4789146;30;20265;-79
2022/11/16 03:41:38;;;;;;;2.30;2.03;;;;;;;-0.78;100.00;101863.56;4780470;30;20277;-78
2022/11/16 03:44:05;;;;;;;4.57;1.97;;;;;;;-0.87;100.00;101855.22;4774084;30;20258;-79
2022/11/16 03:46:31;;;;;;;2.67;2.10;;;;;;;-0.88;100.00;101864.84;4801249;29;20280;-79
2022/11/16 03:48:59;;;;;;;2.73;2.07;;;;;;;-0.98;100.00;101858.28;4772706;30;20266;-81
2022/11/16 04:25:21;;;;;;;3.23;2.03;;;;;;;-1.12;100.00;101855.41;4824902;29;20278;-75
2022/11/16 04:37:47;;;;;;;2.60;2.00;;;;;;;-0.96;100.00;101872.16;4811772;29;20278;-74
2022/11/16 04:38:46;;;;;;;4.17;2.93;;;;;;;-0.58;100.00;101872.34;4825797;29;20255;-76
2022/11/16 04:42:13;;;;;;;2.70;2.07;;;;;;;-0.56;100.00;101863.53;4825791;29;20270;-76
2022/11/16 04:43:57;;;;;;;2.90;2.47;;;;;;;-0.46;100.00;101874.47;4825146;29;20038;-75
2022/11/16 04:49:06;;;;;;;4.30;2.83;;;;;;;-0.62;100.00;101877.72;4825168;29;20046;-77
2022/11/16 04:51:32;;;;;;;3.60;3.07;;;;;;;-0.74;100.00;101880.00;4825444;29;20283;-74
2022/11/16 04:53:58;;;;;;;3.77;3.03;;;;;;;-1.00;100.00;101860.13;4807915;29;20120;-75
2022/11/16 04:56:23;;;;;;;2.87;2.63;;;;;;;-0.97;100.00;101876.53;4824531;29;20034;-75
2022/11/16 04:58:49;;;;;;;3.27;2.10;;;;;;;-1.00;100.00;101871.44;4808496;29;20436;-76
2022/11/16 05:01:14;;;;;;;3.57;2.23;;;;;;;-1.02;100.00;101873.25;4824933;29;20031;-75
2022/11/16 05:03:39;;;;;;;2.87;2.37;;;;;;;-1.07;100.00;101875.22;4825154;29;20026;-77
2022/11/16 05:06:05;;;;;;;2.23;2.03;;;;;;;-1.12;100.00;101876.31;4824936;29;20030;-74
2022/11/16 05:08:31;;;;;;;4.50;3.47;;;;;;;-1.12;100.00;101869.31;4808290;29;20038;-74
2022/11/16 05:10:57;;;;;;;5.47;2.87;;;;;;;-1.10;100.00;101877.94;4824904;29;20054;-75
2022/11/16 05:13:24;;;;;;;4.93;2.80;;;;;;;-1.14;100.00;101867.69;4825015;29;20048;-76
2022/11/16 05:15:50;;;;;;;2.93;2.00;;;;;;;-1.08;100.00;101868.28;4808442;29;20272;-74
2022/11/16 05:18:15;;;;;;;4.43;3.63;;;;;;;-1.04;100.00;101869.00;4808502;29;20057;-74
2022/11/16 05:20:59;;;;;;;2.67;2.27;;;;;;;-0.99;100.00;101869.66;4824096;29;20039;-78
2022/11/16 05:26:08;;;;;;;3.27;2.43;;;;;;;-0.91;100.00;101874.59;4828458;29;20263;-74
2022/11/16 05:28:37;;;;;;;2.55;2.17;;;;;;;-0.98;100.00;101869.59;4825777;29;20307;-75
2022/11/16 05:31:03;;;;;;;2.87;2.20;;;;;;;-1.03;100.00;101863.72;4809018;29;20120;-77
2022/11/16 05:33:28;;;;;;;5.70;2.20;;;;;;;-1.18;100.00;101859.09;4826838;29;20083;-76
2022/11/16 05:35:54;;;;;;;2.80;2.43;;;;;;;-1.31;100.00;101860.50;4825492;29;20102;-76
2022/11/16 05:38:19;;;;;;;3.73;2.40;;;;;;;-1.28;100.00;101881.28;4826905;29;20038;-79
2022/11/16 05:40:45;;;;;;;5.33;2.30;;;;;;;-1.24;100.00;101895.94;4810689;29;20038;-77
2022/11/16 05:43:10;;;;;;;4.03;2.30;;;;;;;-1.27;100.00;101901.28;4824196;29;20058;-74
2022/11/16 05:45:36;;;;;;;3.03;2.20;;;;;;;-1.31;100.00;101889.25;4823588;29;20030;-75
2022/11/16 05:48:01;;;;;;;4.40;2.07;;;;;;;-1.39;100.00;101871.25;4823674;29;20109;-75
2022/11/16 05:50:27;;;;;;;3.50;2.43;;;;;;;-1.31;100.00;101892.69;4825743;29;20547;-73
2022/11/16 05:52:52;;;;;;;6.07;2.57;;;;;;;-1.37;100.00;101892.94;4824426;29;20045;-74
2022/11/16 05:55:18;;;;;;;3.30;2.23;;;;;;;-1.41;100.00;101888.75;4839801;29;20021;-75
2022/11/16 05:57:43;;;;;;;4.23;2.73;;;;;;;-1.42;100.00;101883.59;4844277;29;20034;-77
2022/11/16 06:00:10;;;;;;;5.83;3.47;;;;;;;-1.40;100.00;101882.63;4827326;29;20035;-76
2022/11/16 06:02:35;;;;;;;2.87;2.63;;;;;;;-1.52;100.00;101869.16;4826837;29;20041;-76
2022/11/16 06:05:04;;;;;;;4.20;2.90;;;;;;;-1.40;100.00;101894.81;4810473;29;20609;-77
2022/11/16 06:07:29;;;;;;;3.38;2.95;;;;;;;-1.48;100.00;101889.03;4829153;29;20087;-76
2022/11/16 06:09:55;;;;;;;4.07;2.90;;;;;;;-1.45;100.00;101899.34;4825285;29;20034;-73
2022/11/16 06:12:22;;;;;;;3.87;3.10;;;;;;;-1.46;100.00;101900.25;4825288;29;20065;-75
2022/11/16 06:14:48;;;;;;;5.03;3.37;;;;;;;-1.47;100.00;101911.63;4824607;29;20038;-74
2022/11/16 06:17:14;;;;;;;3.93;3.23;;;;;;;-1.65;100.00;101882.69;4822890;29;20771;-75
2022/11/16 06:19:40;;;;;;;2.97;2.70;;;;;;;-1.51;100.00;101910.03;4806590;29;20039;-75
2022/11/16 06:22:06;;;;;;;3.13;2.73;;;;;;;-1.50;100.00;101909.13;4823322;29;20034;-75
2022/11/16 06:24:31;;;;;;;3.97;3.17;;;;;;;-1.52;100.00;101909.19;4825595;29;20310;-76
2022/11/16 06:26:57;;;;;;;5.13;2.80;;;;;;;-1.59;100.00;101908.56;4826304;29;20039;-75
2022/11/16 06:29:24;;;;;;;3.07;2.63;;;;;;;-1.62;100.00;101908.69;4825670;29;20053;-75
2022/11/16 06:31:50;;;;;;;5.30;3.17;;;;;;;-1.58;100.00;101915.50;4826298;29;20740;-75
2022/11/16 06:34:15;;;;;;;3.40;3.10;;;;;;;-1.54;100.00;101925.81;4826857;29;20030;-74
2022/11/16 06:36:41;;;;;;;5.40;3.30;;;;;;;-1.52;100.00;101918.78;4826523;29;20188;-75
2022/11/16 06:39:06;;;;;;;8.73;2.83;;;;;;;-1.47;100.00;101916.84;4831467;29;20034;-74
2022/11/16 06:41:33;;;;;;;3.30;3.00;;;;;;;-1.48;100.00;101910.78;4798914;29;20037;-75
2022/11/16 06:43:59;;;;;;;3.50;3.00;;;;;;;-1.51;100.00;101910.03;4827670;29;20045;-75
2022/11/16 06:46:24;;;;;;;4.57;3.47;;;;;;;-1.45;100.00;101917.63;4828000;29;20275;-76
2022/11/16 06:48:50;;;;;;;4.10;2.97;;;;;;;-1.37;100.00;101923.44;4826863;29;20070;-76
2022/11/16 06:51:15;;;;;;;4.93;3.93;;;;;;;-1.35;100.00;101921.63;4827800;29;20514;-75
2022/11/16 06:53:41;;;;;;;4.57;3.70;;;;;;;-1.35;100.00;101927.72;4829059;29;20604;-75
2022/11/16 06:56:11;;;;;;;6.83;3.40;;;;;;;-1.35;100.00;101927.72;4827850;29;20038;-75
2022/11/16 06:58:36;;;;;;;4.37;3.43;;;;;;;-1.31;100.00;101936.28;4827589;29;20042;-74
2022/11/16 07:01:09;;;;;;;3.60;3.03;;;;;;;-1.38;100.00;101921.75;4812487;29;20292;-73
2022/11/16 07:03:35;;;;;;;3.13;2.83;;;;;;;-1.42;100.00;101922.78;4830258;29;20420;-73
2022/11/16 07:06:09;;;;;;;3.60;3.10;;;;;;;-1.34;100.00;101921.56;4828980;29;20272;-74
2022/11/16 07:08:35;;;;;;;2.77;2.57;;;;;;;-1.41;100.00;101924.47;4827052;29;20383;-73
2022/11/16 07:11:03;;;;;;;5.30;3.70;;;;;;;-1.45;100.00;101928.09;4826016;29;20284;-73
2022/11/16 07:13:31;;;;;;;3.38;3.05;;;;;;;-1.41;100.00;101927.09;4827374;29;20046;-75
2022/11/16 07:16:01;;;;;;;3.40;3.10;;;;;;;-1.48;100.00;101916.00;4827785;29;20137;-75
2022/11/16 07:18:27;;;;;;;4.57;2.87;;;;;;;-1.58;100.00;101910.28;4826684;29;20264;-75
2022/11/16 07:20:53;;;;;;;5.07;3.30;;;;;;;-1.47;100.00;101920.31;4826093;29;20291;-75
2022/11/16 07:23:18;;;;;;;3.33;2.97;;;;;;;-1.51;100.00;101915.25;4809289;29;20284;-75
2022/11/16 07:25:46;;;;;;;4.73;3.67;;;;;;;-1.47;100.00;101914.22;4825866;29;20034;-76
2022/11/16 07:28:11;;;;;;;5.63;3.50;;;;;;;-1.37;100.00;101928.69;4826387;29;20133;-73
2022/11/16 07:30:39;;;;;;;3.40;2.80;;;;;;;-1.43;100.00;101923.69;4826467;29;20668;-74
2022/11/16 07:33:05;;;;;;;3.47;3.17;;;;;;;-1.71;100.00;101893.38;4809289;29;20273;-76
2022/11/16 07:35:30;;;;;;;4.23;3.20;;;;;;;-1.45;100.00;101930.69;4824784;29;20041;-75
2022/11/16 07:37:56;;;;;;;6.50;4.60;;;;;;;-1.46;100.00;101931.63;4825923;29;20030;-74
2022/11/16 07:40:22;;;;;;;5.27;2.97;;;;;;;-1.38;100.00;101929.59;4825965;29;20034;-75
2022/11/16 07:42:48;;;;;;;4.47;3.07;;;;;;;-1.38;100.00;101933.06;4809867;29;20133;-74
2022/11/16 07:45:13;;;;;;;3.53;3.23;;;;;;;-1.34;100.00;101939.00;4829136;29;20271;-73
2022/11/16 07:47:39;;;;;;;5.30;3.10;;;;;;;-1.35;100.00;101935.53;4830549;29;20280;-74
2022/11/16 07:50:05;;;;;;;5.10;3.63;;;;;;;-1.38;100.00;101934.81;4830409;29;20034;-73
2022/11/16 07:52:31;;;;;;;4.90;3.20;;;;;;;-1.32;100.00;101943.28;4829679;29;20121;-75
2022/11/16 07:54:56;;;;;;;4.20;2.63;;;;;;;-1.29;100.00;101945.75;4825404;29;20168;-74
2022/11/16 07:57:22;;;;;;;2.67;2.47;;;;;;;-1.51;100.00;101887.38;4809085;29;20035;-76
2022/11/16 07:59:47;;;;;;;4.23;3.53;;;;;;;-1.10;100.00;101930.25;4826042;29;20042;-76
2022/11/16 08:02:13;;;;;;;4.07;3.63;;;;;;;-0.96;100.00;101934.91;4825893;29;20379;-75
2022/11/16 08:04:38;;;;;;;4.10;2.93;;;;;;;-0.93;100.00;101919.94;4826043;29;20072;-74
2022/11/16 08:07:04;;;;;;;3.57;3.13;;;;;;;-0.79;100.00;101924.66;4826344;29;20031;-76
2022/11/16 08:09:29;;;;;;;5.83;2.47;;;;;;;-0.76;100.00;101926.28;4809230;29;20091;-74
2022/11/16 08:11:56;;;;;;;2.67;2.47;;;;;;;-0.95;99.97;101908.69;4825217;29;20042;-74
2022/11/16 08:14:21;;;;;;;5.40;2.40;;;;;;;-0.93;100.00;101922.56;4808660;29;20129;-74
2022/11/16 08:16:47;;;;;;;2.53;2.20;;;;;;;-1.01;99.86;101914.19;4825174;29;20374;-75
2022/11/16 08:19:13;;;;;;;2.33;2.13;;;;;;;-1.07;99.41;101917.03;4824572;29;20038;-76
2022/11/16 08:21:38;;;;;;;2.40;2.20;;;;;;;-1.17;99.28;101907.84;4808411;29;20043;-74
2022/11/16 08:24:04;;;;;;;2.33;1.87;;;;;;;-1.20;99.72;101905.34;4824703;29;20452;-74
2022/11/16 08:26:30;;;;;;;4.83;2.60;;;;;;;-1.23;99.33;101915.91;4825342;29;20030;-74
2022/11/16 08:28:56;;;;;;;2.53;2.23;;;;;;;-1.25;99.77;101907.28;4825338;29;20035;-76
2022/11/16 08:31:25;;;;;;;3.07;2.53;;;;;;;-1.08;99.74;101924.94;4824898;29;20282;-75
2022/11/16 08:33:53;;;;;;;2.88;2.58;;;;;;;-1.02;99.42;101925.56;4824818;29;20034;-74
2022/11/16 08:36:19;;;;;;;3.40;2.50;;;;;;;-0.86;99.26;101924.97;4824777;29;20432;-75
2022/11/16 08:38:49;;;;;;;2.80;2.40;;;;;;;-0.72;99.11;101923.47;4824766;29;20102;-76
2022/11/16 08:41:16;;;;;;;2.90;2.57;;;;;;;-0.52;98.93;101941.00;4824786;29;20034;-75
2022/11/16 08:43:43;;;;;;;3.30;2.90;;;;;;;-0.39;97.24;101929.09;4824814;29;20669;-74
2022/11/16 08:46:09;;;;;;;7.20;3.87;;;;;;;-0.40;96.26;101914.31;4824908;29;20289;-74
2022/11/16 08:48:35;;;;;;;4.00;2.90;;;;;;;-0.23;96.43;101918.84;4824687;29;20298;-74
2022/11/16 08:51:06;;;;;;;8.73;3.13;;;;;;;-0.10;95.62;101924.38;4824243;29;20642;-74
2022/11/16 08:53:35;;;;;;;3.73;2.77;;;;;;;-0.17;95.50;101930.81;4825042;29;20550;-75
2022/11/16 08:56:14;;;;;;;6.10;3.77;;;;;;;-0.41;94.46;101940.53;4825087;29;20360;-74
2022/11/16 08:59:04;;;;;;;2.50;2.30;;;;;;;-0.82;94.39;101926.53;4824508;29;20291;-75
2022/11/16 09:01:31;;;;;;;3.07;2.40;;;;;;;-1.01;95.82;101931.63;4825315;29;20716;-76
2022/11/16 09:03:57;;;;;;;3.53;3.23;;;;;;;-1.21;96.33;101926.31;4823973;29;20038;-74
2022/11/16 09:06:24;;;;;;;2.90;2.60;;;;;;;-1.32;97.19;101931.97;4807522;29;20268;-74
2022/11/16 09:08:50;;;;;;;4.23;2.47;;;;;;;-1.46;97.69;101923.78;4824077;29;20038;-77
2022/11/16 09:11:19;;;;;;;2.40;2.20;;;;;;;-1.73;97.61;101894.34;4823862;29;20291;-74
2022/11/16 09:13:47;;;;;;;2.80;2.27;;;;;;;-1.65;98.16;101934.94;4823821;29;20284;-75
2022/11/16 09:16:15;;;;;;;2.97;2.67;;;;;;;-1.63;99.22;101930.50;4824455;29;20299;-74
2022/11/16 09:18:42;;;;;;;4.30;2.15;;;;;;;-1.61;98.89;101928.69;4824686;29;20275;-76
2022/11/16 09:21:08;;;;;;;4.67;2.90;;;;;;;-1.60;98.65;101930.38;4824657;29;20075;-74
2022/11/16 09:23:33;;;;;;;3.13;2.60;;;;;;;-1.62;99.06;101913.91;4823844;29;20259;-75
2022/11/16 09:26:01;;;;;;;5.60;3.30;;;;;;;-1.30;98.74;101935.38;4823681;29;20042;-76
2022/11/16 09:28:27;;;;;;;4.95;2.70;;;;;;;-1.20;98.26;101922.78;4823662;29;20061;-74
2022/11/16 09:30:52;;;;;;;4.53;3.20;;;;;;;-1.14;97.33;101931.28;4823724;29;20084;-74
2022/11/16 09:33:18;;;;;;;5.33;3.20;;;;;;;-1.09;97.55;101928.47;4824021;29;20539;-77
2022/11/16 09:35:44;;;;;;;6.57;3.80;;;;;;;-1.08;96.99;101936.25;4823593;29;20383;-74
2022/11/16 09:38:10;;;;;;;11.43;4.07;;;;;;;-1.10;96.97;101927.63;4823666;29;20030;-74
2022/11/16 09:40:37;;;;;;;4.87;4.33;;;;;;;-1.14;96.79;101914.75;4823820;29;20082;-74
2022/11/16 09:43:29;;;;;;;2.70;2.50;;;;;;;-1.03;96.53;101929.09;4824414;29;20026;-74
2022/11/16 09:46:10;;;;;;;7.13;3.30;;;;;;;-1.00;96.20;101925.50;4824394;29;20274;-77
2022/11/16 09:48:37;;;;;;;6.03;3.03;;;;;;;-1.06;96.03;101928.34;4825108;29;20286;-76
2022/11/16 09:51:08;;;;;;;3.70;3.00;;;;;;;-1.06;96.40;101928.34;4826039;29;20272;-73
2022/11/16 09:53:44;;;;;;;4.57;3.40;;;;;;;-1.21;96.78;101914.09;4823968;29;20256;-75
2022/11/16 09:56:13;;;;;;;5.40;3.57;;;;;;;-1.29;97.42;101911.78;4824218;29;20262;-75
2022/11/16 09:58:59;;;;;;;4.57;4.17;;;;;;;-1.21;98.07;101913.25;4823406;29;20301;-73
2022/11/16 10:01:28;;;;;;;6.93;4.37;;;;;;;-1.02;97.88;101919.47;4823393;29;20380;-76
2022/11/16 10:04:28;;;;;;;5.57;4.87;;;;;;;-0.95;96.29;101919.16;4806944;29;20283;-74
2022/11/16 10:07:05;;;;;;;5.40;3.83;;;;;;;-0.99;96.62;101914.13;4824200;29;20347;-79
2022/11/16 10:09:31;;;;;;;4.63;4.07;;;;;;;-1.00;96.36;101912.41;4824273;29;20293;-75
2022/11/16 10:12:29;;;;;;;4.30;3.83;;;;;;;-0.97;96.29;101913.16;4824113;29;20280;-74
2022/11/16 10:15:18;;;;;;;5.57;3.22;;;;;;;-0.91;95.66;101911.19;4823856;29;20658;-75
2022/11/16 10:17:55;;;;;;;6.90;3.57;;;;;;;-0.98;95.51;101900.97;4824665;29;20095;-76
2022/11/16 10:20:45;;;;;;;3.67;3.07;;;;;;;-0.84;95.63;101910.06;4807766;29;20327;-74
2022/11/16 10:23:20;;;;;;;4.00;3.47;;;;;;;-0.86;95.77;101914.50;4823695;29;20802;-76
2022/11/16 10:25:52;;;;;;;7.37;3.63;;;;;;;-0.87;96.20;101918.84;4823537;29;20252;-77
2022/11/16 10:28:45;;;;;;;6.20;4.03;;;;;;;-0.65;96.02;101919.69;4824300;29;20279;-74
2022/11/16 10:31:32;;;;;;;5.83;4.50;;;;;;;-0.50;95.66;101922.63;4824638;29;20332;-75
2022/11/16 10:34:00;;;;;;;6.83;5.00;;;;;;;-0.46;94.74;101919.78;4823873;29;20374;-79
2022/11/16 10:36:31;;;;;;;8.35;5.20;;;;;;;-0.32;94.02;101937.53;4807563;29;20283;-75
2022/11/16 10:38:59;;;;;;;7.60;5.33;;;;;;;-0.28;94.04;101919.97;4807215;29;20034;-75
2022/11/16 10:41:51;;;;;;;5.72;5.07;;;;;;;-0.18;93.91;101926.50;4823074;29;20287;-76
2022/11/16 10:44:35;;;;;;;6.30;5.10;;;;;;;-0.18;93.54;101939.59;4823315;29;20034;-75
2022/11/16 10:47:05;;;;;;;4.13;3.73;;;;;;;-0.22;92.77;101944.09;4822944;29;20272;-74
2022/11/16 10:49:42;;;;;;;3.90;3.50;;;;;;;-0.20;93.45;101949.28;4806508;29;20266;-74
2022/11/16 10:52:08;;;;;;;6.40;4.70;;;;;;;-0.20;93.35;101951.91;4827899;29;20272;-75
2022/11/16 10:54:33;;;;;;;6.30;3.67;;;;;;;-0.23;93.11;101944.16;4840786;29;20267;-70
2022/11/16 10:57:07;;;;;;;4.57;4.17;;;;;;;-0.29;93.26;101941.78;4830105;29;20042;-75
2022/11/16 10:59:47;;;;;;;6.17;4.00;;;;;;;-0.33;93.32;101941.91;4823519;29;20042;-75
2022/11/16 11:02:21;;;;;;;5.70;4.57;;;;;;;-0.33;93.21;101931.44;4823568;29;20630;-76
2022/11/16 11:05:19;;;;;;;6.17;4.50;;;;;;;-0.35;93.83;101922.81;4823842;29;20767;-75
2022/11/16 11:07:58;;;;;;;5.30;3.67;;;;;;;-0.37;92.88;101923.78;4823020;29;20264;-73
2022/11/16 11:10:32;;;;;;;4.97;4.07;;;;;;;-0.51;93.70;101921.75;4824309;29;20734;-76
2022/11/16 11:13:22;;;;;;;4.13;3.73;;;;;;;-0.42;94.00;101936.22;4825692;29;20757;-76
2022/11/16 11:15:50;;;;;;;4.03;3.50;;;;;;;-0.43;93.57;101924.06;4825544;29;20283;-74
2022/11/16 11:18:28;;;;;;;7.03;5.03;;;;;;;-0.33;94.33;101926.22;4826165;29;20264;-74
2022/11/16 11:21:33;;;;;;;4.57;4.18;;;;;;;-0.23;94.68;101931.94;4826101;29;20298;-75
2022/11/16 11:24:01;;;;;;;8.73;5.57;;;;;;;-0.22;94.39;101933.63;4787624;29;20393;-76
2022/11/16 11:26:40;;;;;;;7.32;5.20;;;;;;;-0.36;94.68;101933.34;4772376;30;20782;-75
2022/11/16 11:29:19;;;;;;;7.28;5.40;;;;;;;-0.36;94.20;101931.56;4793496;29;20625;-75
2022/11/16 11:31:48;;;;;;;5.27;4.50;;;;;;;-0.41;93.93;101933.53;4825406;29;20030;-76
2022/11/16 11:34:23;;;;;;;8.93;5.33;;;;;;;-0.37;93.93;101939.50;4825543;29;20841;-75
2022/11/16 11:36:55;;;;;;;5.93;5.10;;;;;;;-0.40;93.58;101932.63;4826262;29;20260;-74
2022/11/16 11:39:20;;;;;;;6.43;4.00;;;;;;;-0.38;93.66;101949.13;4825450;29;20767;-73
2022/11/16 11:42:01;;;;;;;6.10;4.83;;;;;;;-0.37;93.76;101942.97;4825677;29;20268;-74
2022/11/16 11:44:32;;;;;;;6.57;4.40;;;;;;;-0.31;93.06;101944.47;4826325;29;20026;-75
2022/11/16 11:47:22;;;;;;;7.33;4.17;;;;;;;-0.43;92.75;101913.59;4826474;29;20271;-76
2022/11/16 11:50:00;;;;;;;4.80;4.30;;;;;;;-0.36;92.84;101934.19;4826031;29;20542;-76
2022/11/16 11:52:37;;;;;;;4.17;3.77;;;;;;;-0.45;92.94;101929.34;4809973;29;20268;-76
2022/11/16 11:55:06;;;;;;;4.27;3.73;;;;;;;-0.48;93.91;101931.25;4825571;29;20629;-74
2022/11/16 11:57:35;;;;;;;;;;;;;;;-0.37;93.86;101929.88;4826106;29;20268;-74
2022/11/16 12:00:02;;;;;;;6.75;3.83;;;;;;;-0.35;93.25;101928.03;4809522;29;19913;-75
2022/11/16 12:02:56;;;;;;;8.25;4.40;;;;;;;-0.44;93.70;101920.59;4825874;29;20041;-76
2022/11/16 12:05:40;;;;;;;6.00;4.43;;;;;;;-0.45;93.78;101916.25;4826373;29;20030;-76
2022/11/16 12:08:11;;;;;;;5.83;4.23;;;;;;;-0.40;93.64;101913.44;4825936;29;20303;-74
2022/11/16 12:10:45;;;;;;;8.27;4.80;;;;;;;-0.39;93.49;101913.38;4825465;29;20669;-73
2022/11/16 12:13:31;;;;;;;8.93;4.63;;;;;;;-0.37;93.62;101913.31;4826629;29;20855;-74
2022/11/16 12:16:00;;;;;;;6.33;4.17;;;;;;;-0.43;94.22;101919.66;4826560;29;20318;-75
2022/11/16 12:18:40;;;;;;;8.13;6.25;;;;;;;-0.44;94.18;101920.59;4825255;29;20275;-75
2022/11/16 12:21:16;;;;;;;6.20;4.27;;;;;;;-0.49;94.25;101917.31;4824902;29;20094;-75
2022/11/16 12:23:56;;;;;;;6.83;4.07;;;;;;;-0.50;94.84;101926.06;4808320;29;20312;-75
2022/11/16 12:26:41;;;;;;;5.67;4.60;;;;;;;-0.57;94.20;101924.63;4824980;29;20302;-74
2022/11/16 12:29:24;;;;;;;4.20;3.80;;;;;;;-0.64;94.54;101918.78;4825290;29;20259;-75
2022/11/16 12:31:50;;;;;;;5.23;4.47;;;;;;;-0.64;94.70;101926.63;4825876;29;20298;-75
2022/11/16 12:34:46;;;;;;;5.50;4.53;;;;;;;-0.72;94.63;101920.88;4824598;29;20355;-76
2022/11/16 12:37:21;;;;;;;7.90;5.33;;;;;;;-0.83;94.85;101924.84;4825749;29;20034;-75
2022/11/16 12:40:10;;;;;;;7.37;5.10;;;;;;;-0.98;95.42;101906.22;4826007;29;20290;-75
2022/11/16 12:42:47;;;;;;;4.50;4.10;;;;;;;-0.75;95.09;101922.75;4824301;29;21330;-75
2022/11/16 12:45:42;;;;;;;4.87;4.07;;;;;;;-0.71;94.68;101922.56;4824694;29;20030;-76
2022/11/16 12:48:45;;;;;;;5.47;4.27;;;;;;;-0.69;95.22;101920.75;4808285;29;20275;-75
2022/11/16 12:51:19;;;;;;;4.80;4.30;;;;;;;-0.69;94.85;101922.50;4824604;29;20260;-76
2022/11/16 12:53:54;;;;;;;7.33;4.67;;;;;;;-0.73;93.97;101920.94;4824645;29;20299;-74
2022/11/16 12:56:25;;;;;;;3.80;3.40;;;;;;;-0.84;94.64;101923.13;4824132;29;20403;-74
2022/11/16 12:59:05;;;;;;;3.93;3.50;;;;;;;-0.85;94.80;101916.19;4824329;29;20620;-74
2022/11/16 13:01:36;;;;;;;4.13;3.73;;;;;;;-0.95;94.54;101921.78;4825307;29;20832;-75
2022/11/16 13:04:20;;;;;;;5.33;4.43;;;;;;;-0.96;95.04;101920.06;4824398;29;20626;-75
2022/11/16 13:06:59;;;;;;;6.70;4.30;;;;;;;-1.04;95.26;101898.63;4824828;29;20260;-76
2022/11/16 13:09:32;;;;;;;5.10;3.90;;;;;;;-1.07;94.93;101919.66;4808314;29;20670;-76